Virginia Beach, VA

11:31 AM EDT on October 22, 2014 (GMT -0400)
Windsor Woods | Change Station
CLOSE
Current Station
Personal Weather Station
Location: Virginia Beach, VA
Elevation: 13 ft
Nearby Weather Stations

Elev 13 ft 36.82 °N, 76.10 °W | Updated 11 minutes ago

Overcast
Overcast
56.5 °F
Feels Like 56.5 °F
N
2.2
Wind Variable Wind from East

Today
High -- | Low -- °F
--% Chance of Precip.
Yesterday
High -- | Low -- °F
Precip. -- in
7:18 AM 6:18 PM
Waning Crescent, 2% visible
Pressure 29.83 in
Visibility 4.0 miles
Clouds Mostly Cloudy 800 ft
Overcast 1200 ft
Dew Point 56 °F
Humidity 99%
Rainfall 0.77 in
Snow Depth Not available.
UV 1 out of 12
Pollen 1.40 out of 12
Ozone Good
PM2.5 Good
Flu Activity Local Activity
METAR KNTU 221456Z 29013KT 4SM -RA BR BKN008 OVC012 14/12 A2982 RMK AO2 SLP100 T1 SET CB DSNT N-E P0009 60020 T01390117 50003

More Conditions Fewer Conditions

Pressure 29.83 in
Visibility 4.0 miles
Clouds Mostly Cloudy 800 ft
Overcast 1200 ft
Dew Point 56 °F
Humidity 99%
Rainfall 0.77 in
Snow Depth Not available.
UV 1 out of 12
Pollen 1.40 out of 12
Ozone Good
PM2.5 Good
Flu Activity Local Activity
METAR KNTU 221456Z 29013KT 4SM -RA BR BKN008 OVC012 14/12 A2982 RMK AO2 SLP100 T1 SET CB DSNT N-E P0009 60020 T01390117 50003

More Conditions Fewer Conditions

10-Day Weather Forecast

Almanac

Astronomy

Oct. 22, 2014 Rise Set
Actual Time 7:18 AM EDT 6:18 PM EDT
Civil Twilight 6:52 AM EDT 6:45 PM EDT
Nautical Twilight 6:21 AM EDT 7:15 PM EDT
Astronomical Twilight 5:51 AM EDT 7:45 PM EDT
Moon 5:59 AM EDT 5:42 PM EDT
Length of Visible Light 11h 53m
Length of Day
11h 00m
Tomorrow will be 2m 11s shorter.
Waning Crescent, 2% of the Moon is Illuminated
Today
Waning Crescent
Oct 23
New
Oct 30
First Quarter
Nov 6
Full
Nov 14
Last Quarter

Today's Extremes

State Highs State Lows

Community

WunderPhotos

Upload Photos

1,763,949 photos uploaded!

Nearby

Air Quality

  Air Quality AQ Index Pollutant
Yesterday Good
OZONE
Yesterday Good
PM2.5
Current Good
PM2.5
Current Good
OZONE
Wednesday Good
PM2.5

Snow Depth

Station Depth Elevation
No new snow has been reported.

Earthquake Activity

City Distance Mag. Time & Date
No recent earthquake activity has been reported nearby.
Minimum magnitude displayed is 2.5.

Coastal Water Temperatures

Place Temperature
Chesapeake Bay Bridge Tunnel, VA 66.9 °F
Kiptopeke, VA 69.1 °F
Money Point, VA 68.0 °F
Sewells Point, VA 66.0 °F

Nearby Weather Stations